Wilkes Barre Scranton International Airport
KAVP : rendu visible

Aérodrome :











RETROUVEZ-NOUS SUR...

 
LOGIN :

S'inscrire | Disclaimer

   EN    FR    IT 

 









Légende :    VFR   VFR Marginal   IFR   IFR Intensif   IFR Très Intensif
Visi : 
Plafond : 
>= 8 km
>= 3000ft
5 à 8 km
1000 à 3000 ft
1500m à 5 km
500 à 1000 ft
800 à 1500m
200 à 500 ft
< 800m
< 200 ft
Symboles :   Orages  Brouillard  Fortes neiges  Fortes précipitations  Vent > 20 kt






- Altitude de l'aérodrome : 962 ft
- Code IATA : AVP


KAVP - Wilkes Barre Scranton International

DERNIER METAR :
  • 121034Z 30008KT 3/4SM R04/P6000FT -SN BR OVC012 M01/M03 A2982 RMK AO2 P0004 T10061028 $

METARs EXPIRÉS :
  • 121014Z 32015G25KT 1 1/4SM -SN BKN010 BKN013 OVC026 01/M02 A2981 RMK AO2 P0002 T00061022 $
  • 121003Z 34012G22KT 2 1/2SM -SN BKN014 OVC021 01/M02 A2980 RMK AO2 P0001 T00111017 $
  • 120954Z VRB05KT 3SM -SN BKN014 OVC019 01/M02 A2979 RMK AO2 RAE50SNB50 SLP089 P0007 T00111017 $
  • 120918Z 33010KT 6SM -RA BR OVC014 01/M01 A2976 RMK AO2 PRESRR P0003 T00111011 $
  • 120908Z 31006KT 6SM RA BR OVC015 02/M01 A2975 RMK AO2 P0001 T00171006 $
  • 120854Z 31007KT 6SM RA BR OVC013 02/M01 A2974 RMK AO2 SLP072 P0007 60013 T00171006 53002 $
  • 120818Z 29007KT 5SM RA BR FEW005 OVC010 02/00 A2974 RMK AO2 P0002 T00220000 $
  • 120803Z 29008KT 5SM -RA BR SCT006 BKN009 OVC050 03/01 A2974 RMK AO2 P0001 T00280011 $
  • 120754Z 31007KT 290V350 3SM -RA BR SCT006 OVC050 03/01 A2972 RMK AO2 RAB0656 SLP064 P0006 T00330011 $
  • 120739Z 00000KT 2 1/2SM -RA BR FEW004 FEW008 OVC048 03/02 A2972 RMK AO2 RAB0656 PRESFR P0006 T00280017 $

TAF KAVP
Valide du 12 à 09h jusqu'au 13 à 06h UTC


120905Z 1209/1306 30006KT 6SM -RA OVC012
TEMPO 1210/1211 1SM -SNPL OVC007
FM121100 32010KT 3/4SM -SN OVC012
FM121200 32011G19KT P6SM OVC015
FM121400 32012G22KT P6SM BKN040



MET'MAP, la Météo Aéronautique d'un coup d'oeil ! - Copyright ORBIFLY Décembre 2007 - Disclaimer

ORBIFLY MET'MAP TEAM :

Programmation & Développement : Alexandra Zaïnal
Conception & Développement : Baudouin d'Aumeries
Co-Programmation & Développement : Marc-Olivier Méhu
Soutien technique & logistique : Manuel Goepfert

Contact : metmap@orbifly.com




SOURCES & CREDITS :

   NOAA       Earth
Advisory